Time;durP1;ratioP1;P1;durP2;ratioP2;P2;SDS_P1;SDS_P2;PMS_P1;PMS_P2;Temp;Humidity;BMP_temperature;BMP_pressure;BME280_temperature;BME280_humidity;BME280_pressure;Samples;Min_cycle;Max_cycle;Signal;HPM_P1;HPM_P2
2022/10/21 00:00:36;;;;;;;;;;;;;;;18.34;100.00;98450.78;5059082;28;20074;-46
2022/10/21 00:03:02;;;;;;;;;;;;;;;18.17;100.00;98451.97;5057573;28;19920;-46
2022/10/21 00:05:27;;;;;;;;;;;;;;;17.84;100.00;98476.06;5060077;28;20007;-46
2022/10/21 00:07:52;;;;;;;;;;;;;;;18.37;100.00;98474.00;5059707;28;19920;-46
2022/10/21 00:10:17;;;;;;;;;;;;;;;18.56;100.00;98478.69;5058659;28;19920;-45
2022/10/21 00:12:43;;;;;;;;;;;;;;;18.38;100.00;98483.47;5058707;28;19920;-43
2022/10/21 00:15:08;;;;;;;;;;;;;;;18.62;100.00;98478.25;5059075;28;20452;-46
2022/10/21 00:17:34;;;;;;;;;;;;;;;18.68;100.00;98479.56;5060185;28;20660;-46
2022/10/21 00:20:00;;;;;;;;;;;;;;;19.20;100.00;98473.94;5059746;28;20429;-46
2022/10/21 00:22:25;;;;;;;;;;;;;;;18.52;100.00;98472.03;5059496;28;19920;-46
2022/10/21 00:24:50;;;;;;;;;;;;;;;18.49;100.00;98472.28;5058670;28;19916;-43
2022/10/21 00:27:15;;;;;;;;;;;;;;;18.76;100.00;98465.03;5058485;28;20011;-46
2022/10/21 00:29:40;;;;;;;;;;;;;;;18.81;100.00;98470.75;5058531;28;19931;-46
2022/10/21 00:32:06;;;;;;;;;;;;;;;18.50;100.00;98463.53;5058324;28;20003;-47
2022/10/21 00:34:31;;;;;;;;;;;;;;;18.36;100.00;98454.94;5055909;28;19947;-46
2022/10/21 00:36:57;;;;;;;;;;;;;;;18.22;100.00;98469.88;5058275;28;19920;-45
2022/10/21 00:39:22;;;;;;;;;;;;;;;17.97;100.00;98480.31;5058113;28;20948;-46
2022/10/21 00:41:47;;;;;;;;;;;;;;;18.35;100.00;98487.13;5057244;28;19955;-45
2022/10/21 00:44:13;;;;;;;;;;;;;;;18.18;100.00;98484.94;5058111;28;19924;-45
2022/10/21 00:46:39;;;;;;;;;;;;;;;17.87;100.00;98492.28;5060534;28;19916;-46
2022/10/21 00:49:11;;;;;;;;;;;;;;;17.92;100.00;98511.03;5056580;28;20276;-46
2022/10/21 00:51:37;;;;;;;;;;;;;;;17.96;100.00;98528.13;5059333;28;19928;-46
2022/10/21 00:54:02;;;;;;;;;;;;;;;18.10;100.00;98524.53;5057554;28;19923;-46
2022/10/21 00:56:28;;;;;;;;;;;;;;;18.71;100.00;98516.72;5057380;28;19919;-46
2022/10/21 00:58:54;;;;;;;;;;;;;;;18.74;100.00;98508.66;5054927;28;20392;-45
2022/10/21 01:01:19;;;;;;;;;;;;;;;18.34;100.00;98501.13;5056972;28;20687;-49
2022/10/21 01:03:44;;;;;;;;;;;;;;;18.53;100.00;98494.56;5056003;28;19958;-48
2022/10/21 01:06:10;;;;;;;;;;;;;;;18.70;100.00;98486.38;5057565;28;19920;-46
2022/10/21 01:08:35;;;;;;;;;;;;;;;18.40;100.00;98473.75;5055635;28;19928;-45
2022/10/21 01:11:00;;;;;;;;;;;;;;;18.48;100.00;98484.47;5056571;28;19920;-46
2022/10/21 01:13:45;;;;;;;;;;;;;;;18.25;100.00;98475.72;5057700;28;19928;-45
2022/10/21 01:16:19;;;;;;;;;;;;;;;18.08;100.00;98461.28;5058613;28;19924;-45
2022/10/21 01:18:44;;;;;;;;;;;;;;;18.12;100.00;98464.50;5055973;28;19931;-46
2022/10/21 01:21:12;;;;;;;;;;;;;;;18.08;100.00;98466.50;5056498;28;19924;-45
2022/10/21 01:23:43;;;;;;;;;;;;;;;18.22;100.00;98465.50;5056233;28;19916;-46
2022/10/21 01:26:09;;;;;;;;;;;;;;;18.45;100.00;98470.81;5058733;28;20079;-45
2022/10/21 01:28:40;;;;;;;;;;;;;;;18.65;100.00;98446.72;5058438;28;20471;-45
2022/10/21 01:31:16;;;;;;;;;;;;;;;18.92;100.00;98427.38;5056293;28;20007;-45
2022/10/21 01:33:42;;;;;;;;;;;;;;;18.53;100.00;98421.56;5056680;28;20154;-46
2022/10/21 01:36:07;;;;;;;;;;;;;;;18.42;100.00;98408.47;5055661;28;20441;-46
2022/10/21 01:38:33;;;;;;;;;;;;;;;18.19;100.00;98418.81;5057315;28;20008;-47
2022/10/21 01:41:02;;;;;;;;;;;;;;;18.43;100.00;98415.34;5053256;28;20006;-45
2022/10/21 01:43:30;;;;;;;;;;;;;;;18.32;100.00;98411.78;5057472;28;19920;-45
2022/10/21 01:46:02;;;;;;;;;;;;;;;18.25;100.00;98404.53;5057325;28;20029;-46
2022/10/21 01:48:29;;;;;;;;;;;;;;;18.49;100.00;98405.31;5057184;28;19924;-46
2022/10/21 01:51:00;;;;;;;;;;;;;;;18.54;100.00;98389.31;5054686;28;19920;-45
2022/10/21 01:53:27;;;;;;;;;;;;;;;18.97;100.00;98388.72;5059643;28;19920;-45
2022/10/21 01:55:52;;;;;;;;;;;;;;;19.41;100.00;98366.19;5060750;28;19927;-45
2022/10/21 01:58:19;;;;;;;;;;;;;;;19.25;100.00;98350.91;5059863;28;19924;-45
2022/10/21 02:00:45;;;;;;;;;;;;;;;19.20;100.00;98343.44;5061411;28;19928;-45
2022/10/21 02:03:10;;;;;;;;;;;;;;;19.44;100.00;98332.81;5058664;28;19925;-46
2022/10/21 02:05:36;;;;;;;;;;;;;;;19.18;100.00;98329.66;5060747;28;19920;-45
2022/10/21 02:08:01;;;;;;;;;;;;;;;18.68;100.00;98326.53;5062281;28;20042;-45
2022/10/21 02:10:27;;;;;;;;;;;;;;;18.86;100.00;98334.78;5060864;28;19920;-45
2022/10/21 02:12:52;;;;;;;;;;;;;;;19.30;100.00;98327.88;5058503;28;19931;-45
2022/10/21 02:15:18;;;;;;;;;;;;;;;18.81;100.00;98327.28;5059455;28;19927;-46
2022/10/21 02:17:45;;;;;;;;;;;;;;;19.37;100.00;98323.00;5060633;28;19928;-48
2022/10/21 02:20:10;;;;;;;;;;;;;;;19.71;100.00;98297.66;5058531;28;19935;-45
2022/10/21 02:22:35;;;;;;;;;;;;;;;19.25;100.00;98297.84;5059441;28;19920;-46
2022/10/21 02:25:02;;;;;;;;;;;;;;;19.94;100.00;98274.88;5060066;28;19924;-45
2022/10/21 02:27:28;;;;;;;;;;;;;;;19.82;100.00;98257.59;5061736;28;19920;-45
2022/10/21 02:29:54;;;;;;;;;;;;;;;19.98;100.00;98255.38;5060220;28;19931;-45
2022/10/21 02:32:25;;;;;;;;;;;;;;;20.03;100.00;98247.97;5059350;28;19971;-45
2022/10/21 02:35:02;;;;;;;;;;;;;;;20.30;100.00;98236.19;5058983;28;20042;-45
2022/10/21 02:37:46;;;;;;;;;;;;;;;20.96;100.00;98237.56;5060044;28;19916;-46
2022/10/21 02:40:13;;;;;;;;;;;;;;;20.22;100.00;98239.41;5060684;28;20022;-46
2022/10/21 02:42:39;;;;;;;;;;;;;;;19.61;100.00;98250.53;5057297;28;19927;-45
2022/10/21 02:45:05;;;;;;;;;;;;;;;20.39;100.00;98247.63;5058633;28;19920;-46
2022/10/21 02:47:30;;;;;;;;;;;;;;;20.88;100.00;98230.38;5057750;28;19912;-45
2022/10/21 02:49:55;;;;;;;;;;;;;;;20.74;100.00;98231.59;5059833;28;20277;-46
2022/10/21 02:52:20;;;;;;;;;;;;;;;19.90;100.00;98236.06;5060558;28;19917;-45
2022/10/21 02:54:46;;;;;;;;;;;;;;;20.14;100.00;98248.84;5059811;28;19920;-46
2022/10/21 02:57:11;;;;;;;;;;;;;;;20.53;100.00;98236.03;5059755;28;19936;-45
2022/10/21 02:59:36;;;;;;;;;;;;;;;20.34;100.00;98229.72;5059929;28;19925;-45
2022/10/21 03:02:01;;;;;;;;;;;;;;;19.71;100.00;98227.13;5059922;28;20313;-46
2022/10/21 03:04:26;;;;;;;;;;;;;;;20.57;100.00;98224.34;5060147;28;20147;-46
2022/10/21 03:06:52;;;;;;;;;;;;;;;20.50;100.00;98223.19;5059559;28;19955;-46
2022/10/21 03:09:17;;;;;;;;;;;;;;;20.81;100.00;98219.63;5057934;28;19920;-45
2022/10/21 03:11:42;;;;;;;;;;;;;;;21.03;100.00;98210.72;5060557;28;19920;-45
2022/10/21 03:14:07;;;;;;;;;;;;;;;21.23;100.00;98216.84;5058877;28;19920;-46
2022/10/21 03:16:33;;;;;;;;;;;;;;;21.24;100.00;98213.25;5060562;28;19920;-47
2022/10/21 03:18:58;;;;;;;;;;;;;;;21.04;100.00;98216.78;5059699;28;19920;-46
2022/10/21 03:21:23;;;;;;;;;;;;;;;21.22;100.00;98204.69;5060417;28;19916;-46
2022/10/21 03:23:48;;;;;;;;;;;;;;;21.00;100.00;98204.94;5060111;28;19920;-47
2022/10/21 03:26:14;;;;;;;;;;;;;;;20.66;100.00;98218.31;5059839;28;19927;-47
2022/10/21 03:28:39;;;;;;;;;;;;;;;20.64;100.00;98215.00;5058923;28;19917;-45
2022/10/21 03:31:04;;;;;;;;;;;;;;;20.71;100.00;98216.16;5059999;28;19927;-46
2022/10/21 03:33:29;;;;;;;;;;;;;;;20.55;100.00;98218.38;5058936;28;19916;-46
2022/10/21 03:35:55;;;;;;;;;;;;;;;20.74;100.00;98215.88;5060511;28;19924;-46
2022/10/21 03:38:20;;;;;;;;;;;;;;;19.94;100.00;98217.38;5058480;28;19932;-46
2022/10/21 03:40:45;;;;;;;;;;;;;;;19.94;100.00;98222.59;5060898;28;19920;-46
2022/10/21 03:43:10;;;;;;;;;;;;;;;19.61;100.00;98216.56;5058558;28;19928;-47
2022/10/21 03:45:36;;;;;;;;;;;;;;;19.28;100.00;98220.13;5059572;28;19921;-46
2022/10/21 03:48:01;;;;;;;;;;;;;;;19.16;100.00;98221.13;5059343;28;20121;-46
2022/10/21 03:50:26;;;;;;;;;;;;;;;19.09;100.00;98222.53;5059870;28;20015;-45
2022/10/21 03:52:51;;;;;;;;;;;;;;;19.39;100.00;98212.25;5059437;28;19920;-46
2022/10/21 03:55:19;;;;;;;;;;;;;;;18.90;100.00;98223.16;5059893;28;19920;-46
2022/10/21 03:57:44;;;;;;;;;;;;;;;18.87;100.00;98215.59;5059056;28;19920;-46
2022/10/21 04:00:10;;;;;;;;;;;;;;;18.82;100.00;98208.13;5058327;28;19924;-46
2022/10/21 04:02:35;;;;;;;;;;;;;;;18.70;100.00;98204.66;5059275;28;20290;-49
2022/10/21 04:05:01;;;;;;;;;;;;;;;17.89;100.00;98224.72;5060553;28;19939;-46
2022/10/21 04:07:26;;;;;;;;;;;;;;;18.15;100.00;98234.94;5057127;28;20034;-46
2022/10/21 04:09:51;;;;;;;;;;;;;;;18.83;100.00;98230.63;5055499;28;19924;-46
2022/10/21 04:12:16;;;;;;;;;;;;;;;18.60;100.00;98216.75;5057372;28;19948;-47
2022/10/21 04:14:42;;;;;;;;;;;;;;;18.74;100.00;98218.28;5057112;28;19921;-49
2022/10/21 04:17:07;;;;;;;;;;;;;;;18.27;100.00;98215.81;5057018;28;19920;-46
2022/10/21 04:19:32;;;;;;;;;;;;;;;18.48;100.00;98222.91;5057796;28;20446;-46
2022/10/21 04:21:57;;;;;;;;;;;;;;;18.65;100.00;98214.59;5058710;28;20361;-45
2022/10/21 04:24:22;;;;;;;;;;;;;;;18.20;100.00;98212.00;5059864;28;19939;-46
2022/10/21 04:26:48;;;;;;;;;;;;;;;18.17;100.00;98207.00;5059279;28;19920;-45
2022/10/21 04:29:13;;;;;;;;;;;;;;;18.37;100.00;98214.13;5057758;28;19920;-45
2022/10/21 04:31:38;;;;;;;;;;;;;;;17.76;100.00;98209.13;5057827;28;19917;-45
2022/10/21 04:34:04;;;;;;;;;;;;;;;18.31;100.00;98218.97;5058009;28;19916;-46
2022/10/21 04:36:29;;;;;;;;;;;;;;;17.82;100.00;98218.31;5055581;28;19920;-46
2022/10/21 04:38:54;;;;;;;;;;;;;;;18.22;100.00;98223.13;5057085;28;19929;-47
2022/10/21 04:41:19;;;;;;;;;;;;;;;18.18;100.00;98232.13;5054509;28;19925;-46
2022/10/21 04:43:44;;;;;;;;;;;;;;;17.98;100.00;98233.63;5057897;28;19925;-47
2022/10/21 04:46:12;;;;;;;;;;;;;;;17.94;100.00;98226.97;5058635;28;20411;-46
2022/10/21 04:48:38;;;;;;;;;;;;;;;18.48;100.00;98225.53;5058681;28;19939;-47
2022/10/21 04:51:03;;;;;;;;;;;;;;;18.38;100.00;98220.16;5059395;28;20369;-46
2022/10/21 04:53:28;;;;;;;;;;;;;;;17.64;100.00;98214.44;5057280;28;19928;-46
2022/10/21 04:55:53;;;;;;;;;;;;;;;17.82;100.00;98223.50;5058112;28;19970;-47
2022/10/21 04:58:22;;;;;;;;;;;;;;;18.00;100.00;98233.53;5052876;28;20014;-47
2022/10/21 05:00:47;;;;;;;;;;;;;;;18.13;100.00;98224.66;5056942;28;19995;-46
2022/10/21 05:03:12;;;;;;;;;;;;;;;17.59;100.00;98221.75;5059040;28;20061;-46
2022/10/21 05:05:38;;;;;;;;;;;;;;;18.03;100.00;98233.28;5057660;28;20353;-46
2022/10/21 05:08:03;;;;;;;;;;;;;;;17.82;100.00;98207.88;5057949;28;19956;-46
2022/10/21 05:10:29;;;;;;;;;;;;;;;17.64;100.00;98211.81;5057221;28;19924;-45
2022/10/21 05:12:55;;;;;;;;;;;;;;;17.86;100.00;98219.75;5059445;28;19917;-45
2022/10/21 05:15:20;;;;;;;;;;;;;;;17.70;100.00;98230.44;5059202;28;19917;-47
2022/10/21 05:17:45;;;;;;;;;;;;;;;17.82;100.00;98228.72;5059126;28;19928;-46
2022/10/21 05:20:10;;;;;;;;;;;;;;;18.09;100.00;98235.44;5056303;28;19917;-46
2022/10/21 05:22:36;;;;;;;;;;;;;;;17.63;100.00;98223.16;5059338;28;19965;-45
2022/10/21 05:25:01;;;;;;;;;;;;;;;17.83;100.00;98230.38;5058748;28;19943;-46
2022/10/21 05:27:26;;;;;;;;;;;;;;;17.65;100.00;98223.88;5057397;28;19920;-46
2022/10/21 05:29:51;;;;;;;;;;;;;;;17.91;100.00;98224.59;5058116;28;19965;-45
2022/10/21 05:32:17;;;;;;;;;;;;;;;17.38;100.00;98219.78;5058351;28;19947;-45
2022/10/21 05:34:42;;;;;;;;;;;;;;;18.09;100.00;98231.03;5058314;28;19939;-46
2022/10/21 05:37:07;;;;;;;;;;;;;;;18.18;100.00;98217.31;5058454;28;19962;-45
2022/10/21 05:39:32;;;;;;;;;;;;;;;17.72;100.00;98199.91;5058652;28;20289;-47
2022/10/21 05:41:57;;;;;;;;;;;;;;;18.27;100.00;98222.75;5056290;28;19916;-47
2022/10/21 05:44:23;;;;;;;;;;;;;;;18.36;100.00;98216.88;5056734;28;20039;-46
2022/10/21 05:46:48;;;;;;;;;;;;;;;17.70;100.00;98203.56;5057920;28;19913;-45
2022/10/21 05:49:13;;;;;;;;;;;;;;;17.89;100.00;98213.47;5057071;28;20361;-46
2022/10/21 05:51:38;;;;;;;;;;;;;;;18.08;100.00;98197.28;5059370;28;20522;-46
2022/10/21 05:54:04;;;;;;;;;;;;;;;17.98;100.00;98197.97;5058336;28;20347;-46
2022/10/21 05:56:29;;;;;;;;;;;;;;;17.91;100.00;98202.00;5058502;28;19920;-46
2022/10/21 05:58:54;;;;;;;;;;;;;;;17.97;100.00;98209.34;5058263;28;20385;-47
2022/10/21 06:01:20;;;;;;;;;;;;;;;18.21;100.00;98198.00;5058463;28;19918;-47
2022/10/21 06:03:45;;;;;;;;;;;;;;;17.74;100.00;98191.97;5057891;28;19928;-46
2022/10/21 06:06:10;;;;;;;;;;;;;;;17.84;100.00;98203.41;5057370;28;19916;-46
2022/10/21 06:08:37;;;;;;;;;;;;;;;17.65;100.00;98205.66;5058101;28;20802;-46
2022/10/21 06:11:07;;;;;;;;;;;;;;;17.85;100.00;98209.44;5057781;28;19923;-46
2022/10/21 06:13:32;;;;;;;;;;;;;;;17.67;100.00;98215.00;5057705;28;19934;-46
2022/10/21 06:15:58;;;;;;;;;;;;;;;17.59;100.00;98211.34;5058485;28;19920;-46
2022/10/21 06:18:23;;;;;;;;;;;;;;;17.94;100.00;98217.38;5057988;28;19982;-46
2022/10/21 06:20:49;;;;;;;;;;;;;;;18.10;100.00;98203.22;5057274;28;19970;-47
2022/10/21 06:23:15;;;;;;;;;;;;;;;18.00;100.00;98207.47;5058033;28;20292;-46
2022/10/21 06:25:40;;;;;;;;;;;;;;;18.32;100.00;98218.06;5057404;28;19917;-46
2022/10/21 06:28:05;;;;;;;;;;;;;;;18.00;100.00;98226.53;5055886;28;19962;-47
2022/10/21 06:30:31;;;;;;;;;;;;;;;18.14;100.00;98233.31;5057788;28;19916;-46
2022/10/21 06:32:56;;;;;;;;;;;;;;;18.43;100.00;98218.06;5058786;28;19916;-45
2022/10/21 06:35:21;;;;;;;;;;;;;;;18.33;100.00;98228.34;5058627;28;19920;-46
2022/10/21 06:37:46;;;;;;;;;;;;;;;18.25;100.00;98212.47;5058415;28;19920;-49
2022/10/21 06:40:11;;;;;;;;;;;;;;;18.85;100.00;98220.91;5060213;28;19920;-48
2022/10/21 06:42:37;;;;;;;;;;;;;;;18.63;100.00;98211.28;5059872;28;21064;-47
2022/10/21 06:45:02;;;;;;;;;;;;;;;18.93;100.00;98220.28;5060317;28;20473;-47
2022/10/21 06:47:28;;;;;;;;;;;;;;;18.56;100.00;98228.34;5061807;28;20015;-46
2022/10/21 06:49:53;;;;;;;;;;;;;;;18.28;100.00;98230.47;5060756;28;19927;-46
2022/10/21 06:52:18;;;;;;;;;;;;;;;18.20;100.00;98230.25;5061410;28;20243;-47
2022/10/21 06:54:44;;;;;;;;;;;;;;;17.84;100.00;98246.84;5061779;28;20208;-46
2022/10/21 06:57:09;;;;;;;;;;;;;;;17.94;100.00;98253.84;5061716;28;20055;-46
2022/10/21 06:59:34;;;;;;;;;;;;;;;18.04;100.00;98258.38;5061340;28;20560;-46
2022/10/21 07:01:59;;;;;;;;;;;;;;;18.90;100.00;98257.06;5059771;28;20503;-46
2022/10/21 07:04:25;;;;;;;;;;;;;;;18.58;100.00;98244.72;5061094;28;20515;-46
2022/10/21 07:06:50;;;;;;;;;;;;;;;18.24;100.00;98252.50;5061546;28;19985;-46
2022/10/21 07:09:15;;;;;;;;;;;;;;;18.67;100.00;98251.84;5061187;28;19999;-47
2022/10/21 07:11:40;;;;;;;;;;;;;;;18.55;100.00;98247.56;5061617;28;19943;-47
2022/10/21 07:14:06;;;;;;;;;;;;;;;18.11;100.00;98254.34;5059762;28;20772;-46
2022/10/21 07:16:34;;;;;;;;;;;;;;;18.65;100.00;98247.69;5061155;28;19928;-46
2022/10/21 07:19:00;;;;;;;;;;;;;;;18.34;100.00;98250.88;5061584;28;19997;-46
2022/10/21 07:21:26;;;;;;;;;;;;;;;18.53;100.00;98239.84;5061323;28;19913;-46
2022/10/21 07:23:51;;;;;;;;;;;;;;;18.01;100.00;98238.59;5060845;28;19924;-47
2022/10/21 07:26:17;;;;;;;;;;;;;;;18.33;100.00;98243.97;5060983;28;20337;-49
2022/10/21 07:28:46;;;;;;;;;;;;;;;18.75;100.00;98244.25;5061013;28;20385;-46
2022/10/21 07:31:11;;;;;;;;;;;;;;;18.56;100.00;98244.00;5059407;28;20343;-46
2022/10/21 07:33:36;;;;;;;;;;;;;;;18.18;100.00;98238.16;5061319;28;20011;-46
2022/10/21 07:36:06;;;;;;;;;;;;;;;18.60;100.00;98245.44;5060172;28;19924;-47
2022/10/21 07:38:32;;;;;;;;;;;;;;;18.46;100.00;98243.06;5059867;28;20397;-46
2022/10/21 07:40:58;;;;;;;;;;;;;;;18.43;100.00;98233.72;5059367;28;20030;-46
2022/10/21 07:43:23;;;;;;;;;;;;;;;18.45;100.00;98238.78;5060957;28;20518;-45
2022/10/21 07:45:48;;;;;;;;;;;;;;;19.16;100.00;98234.97;5061018;28;19962;-45
2022/10/21 07:48:13;;;;;;;;;;;;;;;18.80;100.00;98231.72;5059782;28;20392;-45
2022/10/21 07:50:39;;;;;;;;;;;;;;;18.77;100.00;98236.31;5060623;28;19916;-46
2022/10/21 07:53:04;;;;;;;;;;;;;;;18.90;100.00;98247.47;5061443;28;20102;-46
2022/10/21 07:55:29;;;;;;;;;;;;;;;18.80;100.00;98239.53;5060405;28;19916;-45
2022/10/21 07:57:54;;;;;;;;;;;;;;;19.45;100.00;98226.59;5061367;28;19928;-45
2022/10/21 08:00:20;;;;;;;;;;;;;;;19.19;100.00;98220.84;5060325;28;20635;-47
2022/10/21 08:02:45;;;;;;;;;;;;;;;18.90;100.00;98223.97;5059798;28;20014;-46
2022/10/21 08:05:10;;;;;;;;;;;;;;;18.67;100.00;98237.97;5060916;28;20026;-46
2022/10/21 08:07:35;;;;;;;;;;;;;;;19.00;100.00;98240.59;5060384;28;19920;-46
2022/10/21 08:10:01;;;;;;;;;;;;;;;18.64;100.00;98252.06;5059755;28;19912;-46
2022/10/21 08:12:26;;;;;;;;;;;;;;;18.99;100.00;98246.75;5060311;28;20514;-47
2022/10/21 08:14:52;;;;;;;;;;;;;;;18.73;100.00;98248.75;5060468;28;19973;-46
2022/10/21 08:17:17;;;;;;;;;;;;;;;18.52;100.00;98255.59;5060092;28;20022;-45
2022/10/21 08:19:42;;;;;;;;;;;;;;;18.59;100.00;98249.81;5060229;28;20417;-47
2022/10/21 08:22:08;;;;;;;;;;;;;;;18.52;100.00;98263.44;5059484;28;19923;-46
2022/10/21 08:24:33;;;;;;;;;;;;;;;18.46;100.00;98264.75;5060699;28;19970;-46
2022/10/21 08:26:58;;;;;;;;;;;;;;;18.52;100.00;98268.66;5059990;28;19916;-46
2022/10/21 08:29:23;;;;;;;;;;;;;;;18.34;100.00;98269.13;5059232;28;19921;-47
2022/10/21 08:31:49;;;;;;;;;;;;;;;18.82;100.00;98270.72;5060137;28;19916;-47
2022/10/21 08:34:14;;;;;;;;;;;;;;;18.66;100.00;98262.41;5058790;28;19916;-46
2022/10/21 08:36:40;;;;;;;;;;;;;;;18.96;100.00;98272.25;5058790;28;19916;-46
2022/10/21 08:39:05;;;;;;;;;;;;;;;18.86;100.00;98277.38;5060125;28;20011;-46
2022/10/21 08:41:30;;;;;;;;;;;;;;;19.47;100.00;98266.47;5058081;28;20007;-45
2022/10/21 08:44:00;;;;;;;;;;;;;;;19.37;100.00;98273.38;5059902;28;19917;-46
2022/10/21 08:46:27;;;;;;;;;;;;;;;19.24;100.00;98268.28;5058871;28;19916;-46
2022/10/21 08:49:03;;;;;;;;;;;;;;;19.09;100.00;98272.97;5057473;28;19985;-46
2022/10/21 08:51:33;;;;;;;;;;;;;;;19.48;100.00;98275.97;5059273;28;19935;-46
2022/10/21 08:54:00;;;;;;;;;;;;;;;19.52;100.00;98260.88;5058952;28;19916;-45
2022/10/21 08:56:25;;;;;;;;;;;;;;;19.14;100.00;98255.16;5059936;28;19927;-45
2022/10/21 08:58:51;;;;;;;;;;;;;;;19.34;100.00;98260.56;5058091;28;19920;-47
2022/10/21 09:01:19;;;;;;;;;;;;;;;19.61;100.00;98257.50;5059368;28;19924;-46
2022/10/21 09:03:59;;;;;;;;;;;;;;;19.61;100.00;98260.97;5058255;28;19923;-46
2022/10/21 09:06:34;;;;;;;;;;;;;;;19.78;100.00;98243.13;5059146;28;19916;-45
2022/10/21 09:09:09;;;;;;;;;;;;;;;20.12;100.00;98245.56;5057278;28;20369;-46
2022/10/21 09:11:58;;;;;;;;;;;;;;;20.07;100.00;98248.56;5058270;28;19917;-44
2022/10/21 09:14:36;;;;;;;;;;;;;;;20.21;100.00;98236.94;5058344;28;20024;-45
2022/10/21 09:17:20;;;;;;;;;;;;;;;20.52;100.00;98237.78;5058959;28;19923;-46
2022/10/21 09:19:56;;;;;;;;;;;;;;;20.81;100.00;98237.13;5057587;28;19966;-46
2022/10/21 09:22:37;;;;;;;;;;;;;;;20.47;100.00;98235.56;5057858;28;19917;-46
2022/10/21 09:25:08;;;;;;;;;;;;;;;20.43;100.00;98242.00;5060016;28;20419;-46
2022/10/21 09:27:33;;;;;;;;;;;;;;;20.35;100.00;98241.03;5058399;28;19969;-46
2022/10/21 09:29:59;;;;;;;;;;;;;;;20.25;100.00;98256.63;5058466;28;20369;-46
2022/10/21 09:32:27;;;;;;;;;;;;;;;20.11;100.00;98257.78;5058015;28;20648;-46
2022/10/21 09:34:55;;;;;;;;;;;;;;;20.06;100.00;98247.72;5057500;28;20418;-46
2022/10/21 09:37:23;;;;;;;;;;;;;;;20.09;100.00;98266.72;5058731;28;19916;-46
2022/10/21 09:39:54;;;;;;;;;;;;;;;19.59;100.00;98275.94;5058241;28;19920;-45
2022/10/21 09:42:19;;;;;;;;;;;;;;;19.72;100.00;98282.81;5058084;28;19920;-46
2022/10/21 09:44:45;;;;;;;;;;;;;;;20.02;100.00;98292.53;5059126;28;20382;-45
2022/10/21 09:47:22;;;;;;;;;;;;;;;20.15;100.00;98281.91;5059074;28;20537;-46
2022/10/21 09:49:49;;;;;;;;;;;;;;;20.03;100.00;98268.88;5057798;28;19924;-46
2022/10/21 09:52:15;;;;;;;;;;;;;;;20.32;100.00;98283.94;5056692;28;19923;-46
2022/10/21 09:54:40;;;;;;;;;;;;;;;20.20;100.00;98288.38;5058546;28;19916;-46
2022/10/21 09:57:22;;;;;;;;;;;;;;;19.97;100.00;98282.44;5059223;28;20003;-46
2022/10/21 09:59:54;;;;;;;;;;;;;;;20.60;100.00;98286.88;5058904;28;19920;-45
2022/10/21 10:02:22;;;;;;;;;;;;;;;20.60;100.00;98286.88;5057148;28;19986;-45
2022/10/21 10:04:48;;;;;;;;;;;;;;;20.08;100.00;98302.50;5058667;28;19913;-45
2022/10/21 10:07:26;;;;;;;;;;;;;;;20.28;100.00;98298.22;5056925;28;19923;-44
2022/10/21 10:09:51;;;;;;;;;;;;;;;20.06;100.00;98293.94;5057947;28;19916;-45
2022/10/21 10:12:20;;;;;;;;;;;;;;;20.46;100.00;98320.22;5058756;28;20269;-45
2022/10/21 10:14:46;;;;;;;;;;;;;;;20.45;100.00;98318.56;5059281;28;19923;-47
2022/10/21 10:17:17;;;;;;;;;;;;;;;20.56;100.00;98316.84;5062529;28;19916;-46
2022/10/21 10:19:42;;;;;;;;;;;;;;;20.49;100.00;98316.53;5061949;28;20188;-47
2022/10/21 10:22:10;;;;;;;;;;;;;;;21.03;100.00;98298.91;5062484;28;20369;-47
2022/10/21 10:24:39;;;;;;;;;;;;;;;20.67;100.00;98294.06;5062717;28;19939;-47
2022/10/21 10:27:04;;;;;;;;;;;;;;;20.55;100.00;98295.09;5062256;28;19924;-48
2022/10/21 10:29:29;;;;;;;;;;;;;;;20.73;100.00;98297.94;5059633;28;20823;-48
2022/10/21 10:31:55;;;;;;;;;;;;;;;20.50;100.00;98307.72;5060966;28;20498;-49
2022/10/21 10:34:21;;;;;;;;;;;;;;;20.68;100.00;98310.59;5060118;28;20009;-49
2022/10/21 10:36:47;;;;;;;;;;;;;;;20.35;100.00;98320.28;5061310;28;19916;-49
2022/10/21 10:39:17;;;;;;;;;;;;;;;20.66;100.00;98322.97;5059982;28;19925;-49
2022/10/21 10:41:44;;;;;;;;;;;;;;;20.71;100.00;98312.97;5059832;28;19924;-49
2022/10/21 10:44:11;;;;;;;;;;;;;;;20.91;100.00;98310.44;5061276;28;19923;-49
2022/10/21 10:46:36;;;;;;;;;;;;;;;20.82;100.00;98312.88;5060634;28;19924;-49
2022/10/21 10:49:12;;;;;;;;;;;;;;;20.54;100.00;98324.00;5060688;28;19917;-47
2022/10/21 10:51:39;;;;;;;;;;;;;;;20.79;100.00;98315.75;5060950;28;19974;-50
2022/10/21 10:54:23;;;;;;;;;;;;;;;20.39;100.00;98334.78;5061827;28;20027;-50
2022/10/21 10:56:48;;;;;;;;;;;;;;;21.27;100.00;98312.47;5061891;28;19917;-49
2022/10/21 10:59:22;;;;;;;;;;;;;;;21.50;100.00;98296.56;5060344;28;19926;-51
2022/10/21 11:01:52;;;;;;;;;;;;;;;21.51;100.00;98288.59;5061427;28;19924;-50
2022/10/21 11:04:25;;;;;;;;;;;;;;;20.47;100.00;98287.88;5060880;28;19916;-49
2022/10/21 11:07:02;;;;;;;;;;;;;;;20.59;100.00;98300.91;5059237;28;19923;-51
2022/10/21 11:09:27;;;;;;;;;;;;;;;21.08;100.00;98312.44;5061236;28;19924;-51
2022/10/21 11:11:55;;;;;;;;;;;;;;;20.86;100.00;98295.94;5061136;28;19923;-49
2022/10/21 11:14:20;;;;;;;;;;;;;;;20.92;100.00;98296.41;5058143;28;19920;-51
2022/10/21 11:17:00;;;;;;;;;;;;;;;20.85;100.00;98290.84;5059690;28;19952;-51
2022/10/21 11:19:25;;;;;;;;;;;;;;;19.92;100.00;98292.47;5059327;28;19927;-52
2022/10/21 11:21:54;;;;;;;;;;;;;;;20.44;100.00;98309.06;5060317;28;19916;-51
2022/10/21 11:24:19;;;;;;;;;;;;;;;20.41;100.00;98304.09;5060892;28;19920;-52
2022/10/21 11:26:56;;;;;;;;;;;;;;;20.91;100.00;98310.44;5061036;28;19919;-50
2022/10/21 11:29:27;;;;;;;;;;;;;;;21.20;100.00;98305.31;5059984;28;19924;-50
2022/10/21 11:32:16;;;;;;;;;;;;;;;20.56;100.00;98322.06;5059293;28;19925;-51
2022/10/21 11:35:00;;;;;;;;;;;;;;;20.36;100.00;98324.56;5058723;28;19966;-49
2022/10/21 11:37:39;;;;;;;;;;;;;;;20.97;100.00;98330.84;5059381;28;20012;-48
2022/10/21 11:40:10;;;;;;;;;;;;;;;21.56;100.00;98311.75;5058593;28;19924;-48
2022/10/21 11:42:36;;;;;;;;;;;;;;;21.45;100.00;98304.84;5058823;28;19973;-49
2022/10/21 11:45:10;;;;;;;;;;;;;;;21.66;100.00;98296.03;5060455;28;20399;-48
2022/10/21 11:47:47;;;;;;;;;;;;;;;22.20;100.00;98280.72;5060561;28;19949;-51
2022/10/21 11:50:31;;;;;;;;;;;;;;;22.06;100.00;98272.31;5059413;28;19921;-49
2022/10/21 11:53:20;;;;;;;;;;;;;;;21.97;100.00;98286.25;5059590;28;19916;-48
2022/10/21 11:55:57;;;;;;;;;;;;;;;22.01;100.00;98278.94;5058192;28;19917;-47
2022/10/21 11:58:32;;;;;;;;;;;;;;;21.44;100.00;98287.47;5060157;28;19932;-48
2022/10/21 12:01:13;;;;;;;;;;;;;;;21.33;100.00;98298.03;5060770;28;19921;-49
2022/10/21 12:03:45;;;;;;;;;;;;;;;21.30;100.00;98295.66;5058568;28;19923;-50
2022/10/21 12:06:14;;;;;;;;;;;;;;;21.06;100.00;98309.94;5059371;28;19951;-48
2022/10/21 12:08:50;;;;;;;;;;;;;;;21.34;100.00;98322.44;5059121;28;19917;-49
2022/10/21 12:11:19;;;;;;;;;;;;;;;20.79;100.00;98320.97;5059263;28;20595;-47
2022/10/21 12:13:45;;;;;;;;;;;;;;;21.81;100.00;98314.81;5059144;28;19916;-48
2022/10/21 12:16:12;;;;;;;;;;;;;;;21.77;100.00;98297.72;5059155;28;19967;-48
2022/10/21 12:18:40;;;;;;;;;;;;;;;21.72;100.00;98295.50;5058367;28;20389;-47
2022/10/21 12:21:05;;;;;;;;;;;;;;;21.58;100.00;98299.34;5060661;28;19966;-49
2022/10/21 12:23:31;;;;;;;;;;;;;;;21.63;100.00;98310.25;5058337;28;20258;-48
2022/10/21 12:25:56;;;;;;;;;;;;;;;21.87;100.00;98304.63;5058272;28;19991;-48
2022/10/21 12:28:27;;;;;;;;;;;;;;;21.88;100.00;98305.44;5059399;28;19932;-48
2022/10/21 12:31:11;;;;;;;;;;;;;;;21.62;100.00;98310.38;5058185;28;20466;-47
2022/10/21 12:33:37;;;;;;;;;;;;;;;20.76;100.00;98313.41;5059897;28;19924;-47
2022/10/21 12:36:21;;;;;;;;;;;;;;;20.30;100.00;98325.09;5059274;28;19920;-49